createdAt,value
2018-06-04T00:00:56.385Z,9.15
2018-06-04T00:03:24.462Z,9.70
2018-06-04T00:05:52.549Z,10.38
2018-06-04T00:08:20.629Z,10.03
2018-06-04T00:10:48.700Z,12.65
2018-06-04T00:13:16.756Z,10.50
2018-06-04T00:15:44.828Z,10.68
2018-06-04T00:18:12.901Z,10.90
2018-06-04T00:20:40.974Z,13.32
2018-06-04T00:23:09.063Z,10.03
2018-06-04T00:25:37.130Z,9.78
2018-06-04T00:28:05.203Z,9.60
2018-06-04T00:30:33.269Z,12.33
2018-06-04T00:33:01.336Z,12.23
2018-06-04T00:35:29.384Z,9.55
2018-06-04T00:37:57.440Z,12.80
2018-06-04T00:40:25.501Z,10.00
2018-06-04T00:42:53.570Z,11.25
2018-06-04T00:45:21.620Z,10.15
2018-06-04T00:47:49.693Z,10.40
2018-06-04T00:50:17.760Z,11.33
2018-06-04T00:52:45.829Z,13.43
2018-06-04T00:55:13.881Z,11.15
2018-06-04T00:57:41.956Z,12.50
2018-06-04T01:00:10.002Z,11.20
2018-06-04T01:02:38.100Z,14.95
2018-06-04T01:05:06.166Z,11.95
2018-06-04T01:07:34.236Z,11.88
2018-06-04T01:10:02.288Z,13.32
2018-06-04T01:12:30.352Z,13.00
2018-06-04T01:14:58.415Z,11.53
2018-06-04T01:17:26.534Z,10.50
2018-06-04T01:19:54.580Z,13.75
2018-06-04T01:22:22.649Z,10.10
2018-06-04T01:24:50.692Z,16.10
2018-06-04T01:27:18.748Z,13.90
2018-06-04T01:29:46.795Z,16.48
2018-06-04T01:32:14.872Z,14.15
2018-06-04T01:34:42.960Z,12.43
2018-06-04T01:37:11.017Z,14.53
2018-06-04T01:39:39.060Z,12.05
2018-06-04T01:42:07.115Z,14.87
2018-06-04T01:44:35.172Z,12.25
2018-06-04T01:47:03.217Z,11.97
2018-06-04T01:49:31.271Z,13.40
2018-06-04T01:51:59.317Z,10.30
2018-06-04T01:54:27.381Z,11.43
2018-06-04T01:56:55.421Z,14.03
2018-06-04T01:59:23.476Z,11.00
2018-06-04T02:01:51.760Z,13.98
2018-06-04T02:04:19.807Z,15.68
2018-06-04T02:06:47.889Z,12.00
2018-06-04T02:09:16.029Z,14.98
2018-06-04T02:11:44.104Z,14.53
2018-06-04T02:14:12.160Z,17.45
2018-06-04T02:16:40.209Z,14.90
2018-06-04T02:19:08.269Z,18.07
2018-06-04T02:21:36.327Z,17.90
2018-06-04T02:24:04.408Z,17.00
2018-06-04T02:26:32.468Z,15.90
2018-06-04T02:29:00.574Z,19.87
2018-06-04T02:31:28.604Z,20.62
2018-06-04T02:33:56.667Z,17.80
2018-06-04T02:36:24.720Z,20.00
2018-06-04T02:38:52.784Z,21.93
2018-06-04T02:41:20.834Z,17.98
2018-06-04T02:43:48.876Z,20.20
2018-06-04T02:46:16.953Z,15.60
2018-06-04T02:48:45.006Z,24.10
2018-06-04T02:51:13.069Z,24.00
2018-06-04T02:53:41.116Z,20.57
2018-06-04T02:56:09.165Z,19.48
2018-06-04T02:58:37.219Z,28.52
2018-06-04T03:01:05.290Z,17.23
2018-06-04T03:03:33.353Z,21.50
2018-06-04T03:06:01.405Z,18.35
2018-06-04T03:08:29.480Z,21.65
2018-06-04T03:10:57.528Z,28.70
2018-06-04T03:13:25.590Z,28.80
2018-06-04T03:15:53.664Z,24.87
2018-06-04T03:18:21.724Z,29.10
2018-06-04T03:20:49.785Z,26.87
2018-06-04T03:23:17.837Z,24.82
2018-06-04T03:25:45.881Z,28.90
2018-06-04T03:28:13.931Z,23.40
2018-06-04T03:30:41.981Z,23.12
2018-06-04T03:33:10.017Z,19.45
2018-06-04T03:35:38.077Z,21.75
2018-06-04T03:38:06.117Z,27.87
2018-06-04T03:40:34.184Z,27.82
2018-06-04T03:43:02.243Z,29.23
2018-06-04T03:45:30.302Z,28.00
2018-06-04T03:47:58.341Z,20.50
2018-06-04T03:50:26.397Z,23.75
2018-06-04T03:52:54.451Z,22.85
2018-06-04T03:55:22.500Z,20.62
2018-06-04T03:57:50.539Z,20.92
2018-06-04T04:00:18.598Z,26.00
2018-06-04T04:02:46.645Z,21.55
2018-06-04T04:05:14.693Z,27.52
2018-06-04T04:07:42.745Z,22.70
2018-06-04T04:10:10.838Z,14.65
2018-06-04T04:12:38.884Z,19.30
2018-06-04T04:15:06.952Z,16.57
2018-06-04T04:17:35.003Z,15.80
2018-06-04T04:20:03.056Z,22.10
2018-06-04T04:22:31.128Z,19.00
2018-06-04T04:24:59.177Z,19.10
2018-06-04T04:27:27.229Z,16.85
2018-06-04T04:29:55.278Z,14.73
2018-06-04T04:32:23.320Z,16.05
2018-06-04T04:34:51.369Z,16.85
2018-06-04T04:37:19.406Z,21.57
2018-06-04T04:39:47.452Z,17.25
2018-06-04T04:42:15.496Z,15.72
2018-06-04T04:44:43.547Z,14.85
2018-06-04T04:47:11.588Z,15.48
2018-06-04T04:49:39.638Z,16.10
2018-06-04T04:52:07.720Z,17.77
2018-06-04T04:54:35.765Z,18.20
2018-06-04T04:57:03.805Z,20.62
2018-06-04T04:59:31.869Z,18.05
2018-06-04T05:01:59.897Z,16.30
2018-06-04T05:04:27.946Z,17.55
2018-06-04T05:06:55.990Z,15.68
2018-06-04T05:09:24.029Z,19.07
2018-06-04T05:11:52.064Z,23.12
2018-06-04T05:14:20.104Z,23.07
2018-06-04T05:16:48.137Z,20.15
2018-06-04T05:19:16.201Z,20.40
2018-06-04T05:21:44.257Z,26.05
2018-06-04T05:24:12.312Z,18.65
2018-06-04T05:26:40.363Z,21.17
2018-06-04T05:29:08.404Z,24.45
2018-06-04T05:31:36.444Z,21.23
2018-06-04T05:34:04.526Z,20.62
2018-06-04T05:36:32.599Z,26.20
2018-06-04T05:39:00.705Z,24.23
2018-06-04T05:41:28.749Z,16.57
2018-06-04T05:43:56.824Z,19.90
2018-06-04T05:46:24.892Z,19.65
2018-06-04T05:48:52.964Z,22.22
2018-06-04T05:51:21.000Z,21.05
2018-06-04T05:53:49.081Z,17.82
2018-06-04T05:56:17.197Z,21.15
2018-06-04T05:58:45.232Z,20.08
2018-06-04T06:01:13.290Z,23.57
2018-06-04T06:03:41.345Z,17.75
2018-06-04T06:06:09.404Z,24.25
2018-06-04T06:08:37.438Z,18.30
2018-06-04T06:11:05.500Z,16.45
2018-06-04T06:13:33.548Z,19.75
2018-06-04T06:16:01.611Z,16.52
2018-06-04T06:18:29.668Z,18.57
2018-06-04T06:20:57.773Z,18.12
2018-06-04T06:23:25.800Z,14.87
2018-06-04T06:25:53.842Z,14.50
2018-06-04T06:28:21.875Z,14.43
2018-06-04T06:30:50.118Z,13.80
2018-06-04T06:33:18.138Z,17.37
2018-06-04T06:35:46.197Z,17.50
2018-06-04T06:38:14.286Z,21.00
2018-06-04T06:40:42.344Z,13.60
2018-06-04T06:43:10.445Z,14.20
2018-06-04T06:45:38.504Z,19.17
2018-06-04T06:48:06.602Z,18.60
2018-06-04T06:50:34.652Z,13.45
2018-06-04T06:53:02.717Z,15.65
2018-06-04T06:55:30.833Z,16.42
2018-06-04T06:57:58.877Z,16.07
2018-06-04T07:00:26.928Z,14.93
2018-06-04T07:02:54.971Z,18.55
2018-06-04T07:05:23.022Z,13.58
2018-06-04T07:07:51.052Z,17.82
2018-06-04T07:10:19.100Z,15.28
2018-06-04T07:12:47.150Z,24.02
2018-06-04T07:15:15.207Z,13.13
2018-06-04T07:17:43.267Z,12.70
2018-06-04T07:20:11.322Z,13.13
2018-06-04T07:22:39.385Z,20.85
2018-06-04T07:25:07.512Z,19.80
2018-06-04T07:27:35.558Z,13.58
2018-06-04T07:30:03.610Z,22.52
2018-06-04T07:32:31.676Z,18.15
2018-06-04T07:34:59.755Z,17.25
2018-06-04T07:37:27.884Z,13.60
2018-06-04T07:39:55.952Z,20.45
2018-06-04T07:42:24.012Z,14.38
2018-06-04T07:44:52.068Z,18.75
2018-06-04T07:47:20.103Z,14.00
2018-06-04T07:49:48.200Z,11.18
2018-06-04T07:52:16.231Z,13.85
2018-06-04T07:54:44.395Z,19.25
2018-06-04T07:57:12.431Z,16.37
2018-06-04T07:59:40.485Z,16.42
2018-06-04T08:02:08.530Z,16.57
2018-06-04T08:04:36.644Z,15.98
2018-06-04T08:07:04.693Z,12.60
2018-06-04T08:09:32.744Z,15.70
2018-06-04T08:12:00.798Z,18.48
2018-06-04T08:14:28.841Z,17.50
2018-06-04T08:16:56.897Z,21.52
2018-06-04T08:19:24.957Z,15.75
2018-06-04T08:21:53.068Z,17.00
2018-06-04T08:24:21.121Z,15.80
2018-06-04T08:26:49.165Z,16.23
2018-06-04T08:29:17.231Z,14.07
2018-06-04T08:31:45.287Z,14.07
2018-06-04T08:34:13.323Z,16.02
2018-06-04T08:36:41.369Z,17.00
2018-06-04T08:39:09.412Z,22.25
2018-06-04T08:41:37.471Z,20.50
2018-06-04T08:44:05.514Z,18.48
2018-06-04T08:46:33.569Z,17.37
2018-06-04T08:49:01.620Z,17.42
2018-06-04T08:51:29.691Z,13.95
2018-06-04T08:53:57.733Z,21.23
2018-06-04T08:56:25.865Z,20.00
2018-06-04T08:58:53.883Z,13.83
2018-06-04T09:01:21.929Z,16.75
2018-06-04T09:03:50.049Z,13.75
2018-06-04T09:06:18.097Z,15.43
2018-06-04T09:08:46.163Z,14.80
2018-06-04T09:11:14.239Z,11.10
2018-06-04T09:13:42.294Z,20.20
2018-06-04T09:16:10.352Z,13.58
2018-06-04T09:18:38.406Z,14.38
2018-06-04T09:21:06.500Z,15.40
2018-06-04T09:23:34.566Z,13.55
2018-06-04T09:26:02.690Z,14.38
2018-06-04T09:28:30.991Z,15.48
2018-06-04T09:30:59.063Z,9.40
2018-06-04T09:33:27.119Z,14.63
2018-06-04T09:35:55.224Z,10.80
2018-06-04T09:38:23.321Z,15.00
2018-06-04T09:40:51.481Z,10.30
2018-06-04T09:43:19.551Z,10.43
2018-06-04T09:45:47.598Z,12.30
2018-06-04T09:48:15.673Z,10.18
2018-06-04T09:50:43.732Z,10.48
2018-06-04T09:53:11.822Z,8.35
2018-06-04T09:55:39.875Z,10.20
2018-06-04T09:58:07.937Z,11.65
2018-06-04T10:00:36.361Z,15.48
2018-06-04T10:03:05.004Z,11.10
2018-06-04T10:05:33.056Z,12.35
2018-06-04T10:08:01.155Z,12.73
2018-06-04T10:10:29.231Z,9.65
2018-06-04T10:12:57.322Z,12.95
2018-06-04T10:15:25.372Z,9.80
2018-06-04T10:17:53.429Z,13.18
2018-06-04T10:20:21.512Z,8.85
2018-06-04T10:22:49.583Z,12.88
2018-06-04T10:25:18.138Z,13.55
2018-06-04T10:27:46.229Z,14.98
2018-06-04T10:30:14.306Z,11.48
2018-06-04T10:32:42.395Z,13.50
2018-06-04T10:35:10.433Z,16.62
2018-06-04T10:37:38.497Z,20.48
2018-06-04T10:40:06.560Z,14.98
2018-06-04T10:42:34.628Z,14.25
2018-06-04T10:45:02.670Z,8.60
2018-06-04T10:47:30.719Z,11.03
2018-06-04T10:49:58.789Z,12.40
2018-06-04T10:52:26.868Z,10.23
2018-06-04T10:54:54.901Z,14.63
2018-06-04T10:57:22.972Z,11.22
2018-06-04T10:59:51.046Z,12.18
2018-06-04T11:02:19.093Z,10.38
2018-06-04T11:04:47.183Z,13.18
2018-06-04T11:07:15.285Z,13.03
2018-06-04T11:09:43.343Z,14.65
2018-06-04T11:12:11.396Z,15.93
2018-06-04T11:14:39.436Z,18.55
2018-06-04T11:17:07.508Z,16.00
2018-06-04T11:19:35.549Z,14.00
2018-06-04T11:22:03.609Z,18.10
2018-06-04T11:24:31.673Z,12.47
2018-06-04T11:26:59.722Z,15.50
2018-06-04T11:29:27.780Z,11.53
2018-06-04T11:31:55.841Z,15.23
2018-06-04T11:34:23.880Z,21.75
2018-06-04T11:36:51.927Z,14.47
2018-06-04T11:39:20.012Z,22.30
2018-06-04T11:41:48.055Z,15.83
2018-06-04T11:44:16.095Z,15.58
2018-06-04T11:46:44.174Z,18.12
2018-06-04T11:49:12.221Z,18.23
2018-06-04T11:51:40.271Z,27.95
2018-06-04T11:54:08.364Z,20.40
2018-06-04T11:56:36.436Z,20.35
2018-06-04T11:59:04.464Z,16.85
2018-06-04T12:01:32.504Z,16.40
2018-06-04T12:04:00.564Z,17.90
2018-06-04T12:06:28.624Z,20.75
2018-06-04T12:08:56.709Z,19.77
2018-06-04T12:11:24.811Z,15.60
2018-06-04T12:13:52.849Z,14.53
2018-06-04T12:16:20.903Z,15.53
2018-06-04T12:18:48.952Z,15.18
2018-06-04T12:21:17.011Z,13.28
2018-06-04T12:23:45.072Z,16.48
2018-06-04T12:26:13.120Z,18.00
2018-06-04T12:28:41.172Z,15.05
2018-06-04T12:31:09.220Z,16.48
2018-06-04T12:33:37.291Z,14.73
2018-06-04T12:36:05.848Z,12.58
2018-06-04T12:38:33.970Z,16.73
2018-06-04T12:41:08.478Z,14.45
2018-06-04T12:43:36.521Z,17.35
2018-06-04T12:46:04.575Z,21.80
2018-06-04T12:48:32.640Z,19.82
2018-06-04T12:51:00.679Z,18.90
2018-06-04T12:53:28.733Z,14.18
2018-06-04T12:55:59.850Z,22.58
2018-06-04T12:58:27.927Z,16.25
2018-06-04T13:00:55.967Z,17.00
2018-06-04T13:03:24.055Z,16.60
2018-06-04T13:05:52.100Z,19.95
2018-06-04T13:08:20.149Z,18.52
2018-06-04T13:10:48.193Z,15.55
2018-06-04T13:13:16.262Z,17.65
2018-06-04T13:15:44.309Z,18.65
2018-06-04T13:18:12.368Z,12.73
2018-06-04T13:20:40.419Z,16.52
2018-06-04T13:23:08.484Z,18.85
2018-06-04T13:25:36.523Z,17.57
2018-06-04T13:28:04.666Z,14.23
2018-06-04T13:30:32.728Z,18.35
2018-06-04T13:33:00.792Z,21.85
2018-06-04T13:35:28.848Z,17.35
2018-06-04T13:37:56.898Z,16.02
2018-06-04T13:40:25.052Z,18.92
2018-06-04T13:42:53.120Z,17.80
2018-06-04T13:45:21.164Z,18.82
2018-06-04T13:47:49.895Z,17.20
2018-06-04T13:50:17.977Z,9.93
2018-06-04T13:52:46.015Z,15.23
2018-06-04T13:55:14.073Z,11.75
2018-06-04T13:57:42.111Z,11.28
2018-06-04T14:00:10.160Z,14.30
2018-06-04T14:02:38.216Z,15.65
2018-06-04T14:05:06.260Z,19.05
2018-06-04T14:07:34.323Z,16.27
2018-06-04T14:10:02.377Z,12.30
2018-06-04T14:12:30.430Z,14.83
2018-06-04T14:14:58.495Z,12.65
2018-06-04T14:17:26.549Z,12.43
2018-06-04T14:19:54.602Z,16.73
2018-06-04T14:22:22.657Z,16.05
2018-06-04T14:24:50.769Z,14.63
2018-06-04T14:27:18.836Z,15.00
2018-06-04T14:29:46.900Z,14.73
2018-06-04T14:32:14.967Z,16.30
2018-06-04T14:34:43.023Z,15.23
2018-06-04T14:37:11.091Z,21.07
2018-06-04T14:39:39.143Z,21.10
2018-06-04T14:42:07.207Z,18.57
2018-06-04T14:44:35.288Z,17.87
2018-06-04T14:47:03.369Z,17.07
2018-06-04T14:49:31.442Z,19.73
2018-06-04T14:51:59.544Z,15.85
2018-06-04T14:54:27.637Z,21.25
2018-06-04T14:56:55.708Z,18.80
2018-06-04T14:59:23.775Z,18.10
2018-06-04T15:01:51.828Z,19.20
2018-06-04T15:04:19.954Z,18.35
2018-06-04T15:06:48.058Z,23.85
2018-06-04T15:09:16.212Z,23.70
2018-06-04T15:11:44.276Z,21.95
2018-06-04T15:14:12.353Z,14.75
2018-06-04T15:16:40.413Z,13.55
2018-06-04T15:19:08.492Z,12.45
2018-06-04T15:21:36.560Z,17.77
2018-06-04T15:24:04.667Z,15.50
2018-06-04T15:26:32.733Z,17.15
2018-06-04T15:29:00.785Z,15.80
2018-06-04T15:31:28.844Z,11.75
2018-06-04T15:33:57.033Z,16.15
2018-06-04T15:36:25.089Z,14.70
2018-06-04T15:38:53.141Z,19.05
2018-06-04T15:41:21.204Z,15.05
2018-06-04T15:43:49.296Z,19.87
2018-06-04T15:46:17.333Z,17.20
2018-06-04T15:48:45.391Z,24.12
2018-06-04T15:51:13.457Z,21.33
2018-06-04T15:53:41.503Z,20.60
2018-06-04T15:56:09.580Z,27.70
2018-06-04T15:58:37.644Z,21.90
2018-06-04T16:01:05.717Z,19.10
2018-06-04T16:03:33.764Z,25.37
2018-06-04T16:06:01.822Z,20.62
2018-06-04T16:08:29.867Z,21.93
2018-06-04T16:10:57.928Z,20.82
2018-06-04T16:13:25.968Z,23.07
2018-06-04T16:15:54.044Z,16.37
2018-06-04T16:18:22.099Z,21.23
2018-06-04T16:20:50.169Z,17.30
2018-06-04T16:23:18.256Z,21.33
2018-06-04T16:25:46.308Z,20.43
2018-06-04T16:28:14.412Z,18.90
2018-06-04T16:30:42.458Z,19.05
2018-06-04T16:33:10.500Z,21.50
2018-06-04T16:35:38.556Z,24.20
2018-06-04T16:38:06.603Z,19.87
2018-06-04T16:40:34.698Z,19.87
2018-06-04T16:43:02.755Z,16.10
2018-06-04T16:45:30.801Z,24.50
2018-06-04T16:47:58.888Z,20.80
2018-06-04T16:50:26.972Z,28.27
2018-06-04T16:52:54.998Z,29.57
2018-06-04T16:55:23.052Z,19.67
2018-06-04T16:57:51.119Z,17.50
2018-06-04T17:00:19.196Z,17.05
2018-06-04T17:02:47.288Z,14.35
2018-06-04T17:05:15.335Z,17.70
2018-06-04T17:07:43.400Z,18.27
2018-06-04T17:10:11.537Z,16.50
2018-06-04T17:12:39.621Z,16.20
2018-06-04T17:15:07.664Z,23.38
2018-06-04T17:17:35.717Z,14.78
2018-06-04T17:20:03.780Z,14.03
2018-06-04T17:22:31.841Z,74.90
2018-06-04T17:24:58.966Z,77.53
2018-06-04T17:27:27.038Z,475.68
2018-06-04T17:29:55.121Z,462.00
2018-06-04T17:32:23.193Z,409.40
2018-06-04T17:34:51.276Z,334.07
2018-06-04T17:37:19.343Z,225.80
2018-06-04T17:39:47.387Z,169.62
2018-06-04T17:42:15.456Z,117.00
2018-06-04T17:44:43.509Z,89.07
2018-06-04T17:47:11.560Z,42.33
2018-06-04T17:49:39.599Z,40.43
2018-06-04T17:52:07.657Z,24.02
2018-06-04T17:54:35.707Z,27.80
2018-06-04T17:57:03.775Z,23.27
2018-06-04T17:59:31.848Z,20.30
2018-06-04T18:01:59.926Z,17.55
2018-06-04T18:04:28.022Z,14.60
2018-06-04T18:06:56.096Z,18.50
2018-06-04T18:09:24.145Z,12.53
2018-06-04T18:11:52.246Z,15.10
2018-06-04T18:14:20.309Z,18.40
2018-06-04T18:16:48.381Z,16.27
2018-06-04T18:19:16.443Z,16.67
2018-06-04T18:21:44.525Z,20.15
2018-06-04T18:24:12.571Z,19.82
2018-06-04T18:26:40.612Z,17.65
2018-06-04T18:29:08.660Z,15.98
2018-06-04T18:31:36.716Z,19.55
2018-06-04T18:34:04.764Z,16.82
2018-06-04T18:36:32.808Z,14.58
2018-06-04T18:39:00.891Z,16.77
2018-06-04T18:41:28.928Z,16.20
2018-06-04T18:43:57.008Z,13.83
2018-06-04T18:46:25.079Z,13.13
2018-06-04T18:48:53.134Z,11.00
2018-06-04T18:51:21.177Z,10.82
2018-06-04T18:53:49.276Z,15.13
2018-06-04T18:56:17.356Z,13.93
2018-06-04T18:58:45.408Z,11.50
2018-06-04T19:01:13.452Z,12.70
2018-06-04T19:03:41.521Z,10.58
2018-06-04T19:06:09.683Z,11.57
2018-06-04T19:08:44.610Z,11.03
2018-06-04T19:11:12.633Z,10.58
2018-06-04T19:13:40.704Z,13.58
2018-06-04T19:16:08.740Z,16.82
2018-06-04T19:18:36.804Z,15.20
2018-06-04T19:21:04.874Z,11.18
2018-06-04T19:23:32.952Z,10.63
2018-06-04T19:26:01.038Z,10.00
2018-06-04T19:28:29.101Z,12.00
2018-06-04T19:30:57.137Z,15.05
2018-06-04T19:33:25.196Z,10.43
2018-06-04T19:35:53.232Z,12.80
2018-06-04T19:38:21.322Z,15.98
2018-06-04T19:40:49.368Z,11.85
2018-06-04T19:43:17.418Z,16.42
2018-06-04T19:45:45.466Z,12.70
2018-06-04T19:48:13.516Z,8.20
2018-06-04T19:50:41.559Z,12.75
2018-06-04T19:53:09.627Z,13.53
2018-06-04T19:55:37.688Z,12.43
2018-06-04T19:58:05.833Z,13.00
2018-06-04T20:00:33.892Z,17.95
2018-06-04T20:03:02.026Z,10.08
2018-06-04T20:05:30.096Z,9.18
2018-06-04T20:07:58.984Z,11.20
2018-06-04T20:10:27.015Z,9.05
2018-06-04T20:12:55.089Z,10.03
2018-06-04T20:15:23.145Z,10.58
2018-06-04T20:17:51.228Z,11.55
2018-06-04T20:20:19.300Z,11.70
2018-06-04T20:22:47.408Z,12.35
2018-06-04T20:25:15.465Z,14.68
2018-06-04T20:27:43.520Z,10.20
2018-06-04T20:30:11.614Z,13.10
2018-06-04T20:32:39.715Z,12.23
2018-06-04T20:35:07.781Z,13.85
2018-06-04T20:37:35.837Z,13.35
2018-06-04T20:40:05.035Z,10.90
2018-06-04T20:42:33.110Z,13.65
2018-06-04T20:45:01.161Z,15.18
2018-06-04T20:47:29.215Z,9.83
2018-06-04T20:49:57.289Z,11.55
2018-06-04T20:52:25.341Z,9.68
2018-06-04T20:54:53.420Z,14.78
2018-06-04T20:57:21.473Z,12.63
2018-06-04T20:59:49.540Z,13.03
2018-06-04T21:02:17.588Z,15.03
2018-06-04T21:04:45.684Z,10.03
2018-06-04T21:07:13.740Z,11.75
2018-06-04T21:09:42.017Z,17.62
2018-06-04T21:12:12.056Z,15.95
2018-06-04T21:14:41.024Z,11.63
2018-06-04T21:17:13.245Z,16.48
2018-06-04T21:19:45.085Z,12.68
2018-06-04T21:22:13.281Z,13.85
2018-06-04T21:24:41.627Z,11.45
2018-06-04T21:27:11.827Z,15.10
2018-06-04T21:29:39.913Z,12.13
2018-06-04T21:32:07.956Z,21.82
2018-06-04T21:34:36.042Z,18.20
2018-06-04T21:37:04.088Z,20.52
2018-06-04T21:39:32.155Z,16.30
2018-06-04T21:42:00.214Z,11.55
2018-06-04T21:44:28.264Z,17.32
2018-06-04T21:46:56.324Z,17.05
2018-06-04T21:49:24.428Z,16.30
2018-06-04T21:51:52.482Z,18.95
2018-06-04T21:54:20.547Z,14.07
2018-06-04T21:56:48.582Z,15.38
2018-06-04T21:59:16.684Z,16.57
2018-06-04T22:01:44.761Z,15.30
2018-06-04T22:04:12.825Z,20.25
2018-06-04T22:06:40.881Z,13.10
2018-06-04T22:09:09.063Z,16.70
2018-06-04T22:11:37.129Z,19.12
2018-06-04T22:14:05.553Z,13.38
2018-06-04T22:16:33.596Z,18.70
2018-06-04T22:19:01.653Z,15.03
2018-06-04T22:21:29.711Z,21.60
2018-06-04T22:23:57.793Z,19.85
2018-06-04T22:26:25.840Z,21.95
2018-06-04T22:28:53.891Z,18.90
2018-06-04T22:31:21.948Z,19.32
2018-06-04T22:33:50.016Z,15.08
2018-06-04T22:36:18.054Z,17.52
2018-06-04T22:38:46.117Z,18.02
2018-06-04T22:41:14.159Z,14.78
2018-06-04T22:43:42.213Z,18.40
2018-06-04T22:46:10.255Z,17.10
2018-06-04T22:48:38.312Z,14.93
2018-06-04T22:51:06.369Z,19.82
2018-06-04T22:53:34.428Z,14.47
2018-06-04T22:56:02.500Z,17.02
2018-06-04T22:58:30.557Z,20.15
2018-06-04T23:00:58.610Z,18.98
2018-06-04T23:03:26.668Z,16.27
2018-06-04T23:05:54.741Z,15.70
2018-06-04T23:08:22.801Z,14.47
2018-06-04T23:10:50.872Z,17.02
2018-06-04T23:13:18.916Z,15.23
2018-06-04T23:15:46.979Z,19.17
2018-06-04T23:18:15.044Z,19.55
2018-06-04T23:20:43.148Z,21.73
2018-06-04T23:23:11.228Z,15.10
2018-06-04T23:25:39.314Z,16.62
2018-06-04T23:28:07.372Z,22.22
2018-06-04T23:30:35.452Z,19.05
2018-06-04T23:33:03.514Z,23.25
2018-06-04T23:35:31.583Z,21.02
2018-06-04T23:37:59.632Z,17.27
2018-06-04T23:40:27.696Z,14.87
2018-06-04T23:42:55.752Z,19.27
2018-06-04T23:45:23.804Z,16.70
2018-06-04T23:47:51.862Z,15.88
2018-06-04T23:50:19.903Z,10.78
2018-06-04T23:52:47.963Z,11.93
2018-06-04T23:55:16.029Z,15.23
2018-06-04T23:57:44.093Z,15.85
